Pinegrove, Mississippi
Current Conditions -  °F | °C
As of 10:35 AM on Wednesday 22 Oct 2014 (Local Time) from KUOX Reporting Station
Clear Clear  
Wind Chill: 59°   Ceiling: Unl
Heat Index: 59°   Visibility: 10mi
Dew Point: 41°   Wind: 14mph
Humidity: 51%   Direction: 80°E
Pressure: 30.25"   Gusts: 20mph
Location:  34.6392°N, 89.1796°W
Report Text: KUOX 221535Z AUTO 08012G17KT 10SM CLR 15/05 A3025 RMK AO2 PWINO PNO
Loading
Personal Weather Stations






























Interactive Weather Map
Tropical Storm Tracking
New forecast layout! Learn more

10-Day Weather Forecast

Advertisements
Track Severe Weather on mobile